Portada
METAR-TAF:

METAR-TAF

Aeropuertos :

Aeropuerto Internacional de Bamako-Modibo Keïta

Bamako, Malí

latitud: 12-32N, longitud: 007-57W, altitud: 380 m

Observación

El informe se hizo hace 24 minutos, a las 20:30 UTC
Viento calma
Temperatura 25°C
Humedad 61%
Presión 1012 hPa
Visibilidad 10 km o más
sin nubes por debajo de 1500 m y sin presencia de cumulonimbus.

METAR: GABS 132030Z 00000KT CAVOK 25/17 Q1012 NOSIG

Hora: 20:54 (20:54 UTC)

Pronóstico

El informe se hizo hace 3 horas y 54 minutos, a las 17:00 UTC
Pronóstico válido del 13 a las 18 UTC al 14 a las 24 UTC
Viento 6 kt del sur
Visibilidad 10 km o más
Escasas nubes a una altura de 3500 ft
Probabilidad 40% :
Temporalmente
del 14 a las 06 UTC al 14 a las 11 UTC
Visibilidad: 4500 m
calima

TAF: GABS 131700Z 1318/1424 18006KT 9999 FEW035 PROB40 TEMPO 1406/1411 4500 HZ

Observaciones y pronósticos meteorológicos de más de 4000 aeropuertos (mensajes METAR y TAF).

Los puntos amarillos y rojos representan las estaciones disponibles.

Ponga el ratón en el punto deseado para ver el nombre de la estación.

Haga clic para ver las observaciones y los pronósticos meteorológicos.

Para cambiar el mapa : haga clic en los botones verdes con una cruz de color negro para hacer un zoom, en el botón verde con un guión para alejar o en las flechas verdes para mapas adyacentes.


METAR-TAF: